Terminal Aerodrome Forecast
Issued by NWS

Home | Current Version | Previous Version | Text Only | Print | Product List | Glossary On
Versions: 1 2 3 4 5 6 7 8 9 10 11 12 13 14 15 16 17 18
730
FTUS44 KLZK 281739
TAFHRO
TAF
KHRO 281739Z 2818/0118 20014G24KT P6SM SCT025 OVC250
      TEMPO 2822/0102 5SM SHRA BR OVC025
     FM010200 19014G24KT 5SM TSRA BR OVC015CB
     FM010800 26012G24KT P6SM -SHRA SCT060 OVC100
     FM011200 29014G24KT P6SM BKN250=

USA.gov is the U.S. government's official web portal to all federal, state and local government web resources and services.